Time;durP1;ratioP1;P1;durP2;ratioP2;P2;SDS_P1;SDS_P2;PMS_P1;PMS_P2;Temp;Humidity;BMP_temperature;BMP_pressure;BME280_temperature;BME280_humidity;BME280_pressure;Samples;Min_cycle;Max_cycle;Signal;HPM_P1;HPM_P2
2023/12/01 00:02:13;;;;;;;42.67;26.67;;;0.80;99.90;;;-0.29;98.36;99719.41;5116378;28;20701;-74
2023/12/01 00:04:41;;;;;;;45.30;26.63;;;0.80;99.90;;;-0.25;98.48;99715.59;5116381;28;20208;-74
2023/12/01 00:07:10;;;;;;;44.90;26.87;;;0.90;99.90;;;-0.26;98.43;99728.84;5116304;28;20692;-74
2023/12/01 00:09:38;;;;;;;44.30;26.07;;;0.90;99.90;;;-0.21;98.02;99724.09;5116593;28;20208;-74
2023/12/01 00:12:07;;;;;;;44.73;26.33;;;0.90;99.90;;;-0.20;97.98;99731.00;5115999;28;20705;-74
2023/12/01 00:14:35;;;;;;;42.73;27.03;;;0.90;99.90;;;-0.23;98.16;99731.25;5116524;28;20212;-74
2023/12/01 00:17:05;;;;;;;47.40;26.60;;;0.90;99.90;;;-0.25;98.03;99741.06;5116400;28;20200;-74
2023/12/01 00:19:33;;;;;;;46.87;27.57;;;0.80;99.90;;;-0.33;97.31;99735.53;5116241;28;20216;-73
2023/12/01 00:22:01;;;;;;;49.83;27.80;;;1.10;99.90;;;-0.45;97.62;99747.00;5116261;28;20311;-73
2023/12/01 00:24:29;;;;;;;44.70;25.23;;;0.70;99.90;;;-0.36;98.65;99749.75;5116239;28;20208;-74
2023/12/01 00:26:58;;;;;;;46.20;26.73;;;0.80;99.90;;;-0.32;99.22;99734.59;5116223;28;20294;-74
2023/12/01 00:29:26;;;;;;;46.70;27.50;;;0.90;99.90;;;-0.35;98.98;99746.19;5116122;28;20251;-74
2023/12/01 00:31:54;;;;;;;46.73;27.70;;;0.70;99.90;;;-0.34;98.58;99741.75;5116053;28;20315;-74
2023/12/01 00:34:23;;;;;;;46.00;27.77;;;0.70;99.90;;;-0.35;99.04;99745.34;5116079;28;20206;-74
2023/12/01 00:37:22;;;;;;;48.07;28.30;;;0.80;99.90;;;-0.34;98.91;99744.41;5115993;28;20256;-74
2023/12/01 00:39:51;;;;;;;48.97;28.70;;;0.80;99.90;;;-0.38;99.02;99741.16;5115946;28;20295;-74
2023/12/01 00:42:19;;;;;;;47.13;27.63;;;0.70;99.90;;;-0.39;98.34;99746.53;5115838;28;20224;-73
2023/12/01 00:44:47;;;;;;;50.50;28.90;;;0.80;99.90;;;-0.38;99.61;99748.19;5115880;28;20415;-74
2023/12/01 00:47:15;;;;;;;49.40;28.67;;;0.70;99.90;;;-0.37;98.57;99749.84;5115805;28;20208;-74
2023/12/01 00:49:45;;;;;;;47.83;28.23;;;0.90;99.90;;;-0.32;98.20;99758.25;5115715;28;20204;-74
2023/12/01 00:52:13;;;;;;;46.73;26.33;;;0.80;99.90;;;-0.32;98.40;99766.16;5115310;28;20274;-74
2023/12/01 00:54:41;;;;;;;43.17;26.57;;;0.80;99.90;;;-0.29;98.46;99755.38;5115368;28;20212;-74
2023/12/01 00:57:09;;;;;;;48.20;28.10;;;0.80;99.90;;;-0.32;98.46;99755.63;5115595;28;20207;-73
2023/12/01 00:59:37;;;;;;;49.97;27.53;;;0.90;99.90;;;-0.27;98.52;99754.31;5115594;28;20303;-74
2023/12/01 01:02:06;;;;;;;46.97;26.67;;;0.90;99.90;;;-0.26;98.37;99755.16;5115187;28;20702;-74
2023/12/01 01:04:34;;;;;;;49.93;28.07;;;0.80;99.90;;;-0.27;98.94;99762.19;5115464;28;20204;-74
2023/12/01 01:07:04;;;;;;;45.13;26.80;;;1.10;99.90;;;-0.37;97.78;99760.38;5115512;28;20211;-74
2023/12/01 01:09:32;;;;;;;47.60;28.57;;;0.80;99.90;;;-0.38;98.37;99766.63;5115090;28;20678;-74
2023/12/01 01:12:01;;;;;;;44.57;26.03;;;0.70;99.90;;;-0.44;98.51;99770.50;5115211;28;20224;-74
2023/12/01 01:14:29;;;;;;;48.00;27.53;;;0.70;99.90;;;-0.51;97.62;99778.03;5114864;28;20630;-74
2023/12/01 01:16:57;;;;;;;45.20;26.90;;;0.80;99.90;;;-0.48;98.18;99768.25;5114573;28;20257;-74
2023/12/01 01:19:26;;;;;;;43.87;26.47;;;0.60;99.90;;;-0.44;98.62;99767.88;5115184;28;20212;-74
2023/12/01 01:21:54;;;;;;;46.27;26.80;;;0.70;99.90;;;-0.39;98.80;99770.19;5114792;28;20247;-74
2023/12/01 01:24:23;;;;;;;49.27;27.73;;;0.70;99.90;;;-0.44;98.64;99773.16;5115095;28;20238;-74
2023/12/01 01:26:51;;;;;;;46.53;27.30;;;0.80;99.90;;;-0.40;99.14;99768.50;5114773;28;20662;-74
2023/12/01 01:29:19;;;;;;;47.80;26.70;;;0.70;99.90;;;-0.41;97.83;99767.66;5114718;28;20583;-74
2023/12/01 01:31:48;;;;;;;46.73;26.93;;;0.70;99.90;;;-0.38;99.03;99766.63;5114824;28;20314;-73
2023/12/01 01:34:16;;;;;;;46.17;27.43;;;0.70;99.90;;;-0.33;98.70;99764.47;5114862;28;20200;-74
2023/12/01 01:36:45;;;;;;;47.33;26.60;;;0.80;99.90;;;-0.34;98.30;99768.88;5114976;28;20303;-74
2023/12/01 01:39:13;;;;;;;51.80;27.03;;;0.80;99.90;;;-0.44;98.07;99769.66;5114776;28;20204;-74
2023/12/01 01:41:43;;;;;;;50.90;27.87;;;0.80;99.90;;;-0.41;98.72;99767.66;5114758;28;20265;-74
2023/12/01 01:44:11;;;;;;;47.67;26.60;;;0.70;99.90;;;-0.45;97.68;99770.66;5114769;28;20303;-74
2023/12/01 01:46:40;;;;;;;46.10;27.30;;;0.60;99.90;;;-0.41;98.76;99770.28;5114419;28;20764;-74
2023/12/01 01:49:09;;;;;;;48.40;28.23;;;0.90;99.90;;;-0.41;98.47;99772.09;5114267;28;20606;-74
2023/12/01 01:51:38;;;;;;;44.10;25.70;;;0.70;99.90;;;-0.44;97.79;99786.28;5113964;28;20567;-74
2023/12/01 01:54:07;;;;;;;46.43;27.97;;;0.90;99.90;;;-0.48;98.21;99787.50;5114574;28;20247;-74
2023/12/01 01:56:35;;;;;;;47.73;27.63;;;0.60;99.90;;;-0.41;98.78;99782.63;5114520;28;20239;-74
2023/12/01 01:59:05;;;;;;;45.67;26.27;;;0.70;99.90;;;-0.36;98.53;99791.00;5114125;28;20296;-74
2023/12/01 02:01:33;;;;;;;46.50;27.77;;;1.00;99.90;;;-0.34;98.31;99799.63;5114048;28;20752;-74
2023/12/01 02:04:02;;;;;;;47.47;27.37;;;0.90;99.90;;;-0.39;97.11;99797.31;5114065;28;20736;-74
2023/12/01 02:06:32;;;;;;;45.70;26.60;;;0.80;99.90;;;-0.32;98.79;99793.28;5114281;28;20204;-74
2023/12/01 02:09:02;;;;;;;47.43;26.80;;;0.80;99.90;;;-0.37;97.90;99802.44;5115142;28;20241;-74
2023/12/01 02:11:30;;;;;;;43.23;26.10;;;0.80;99.90;;;-0.43;97.49;99800.28;5114216;28;20210;-74
2023/12/01 02:14:00;;;;;;;45.90;26.27;;;0.70;99.90;;;-0.41;97.65;99795.78;5114038;28;20224;-74
2023/12/01 02:16:29;;;;;;;46.10;26.60;;;0.70;99.90;;;-0.38;98.57;99808.69;5114224;28;20287;-74
2023/12/01 02:18:58;;;;;;;47.07;26.60;;;0.80;99.90;;;-0.37;97.80;99807.72;5114114;28;20207;-74
2023/12/01 02:21:29;;;;;;;45.30;26.63;;;0.70;99.90;;;-0.34;97.74;99810.13;5114043;28;20226;-74
2023/12/01 02:23:59;;;;;;;44.53;26.30;;;1.00;99.90;;;-0.41;97.50;99808.91;5114098;28;20192;-74
2023/12/01 02:26:27;;;;;;;42.90;25.70;;;0.80;99.90;;;-0.44;98.78;99809.97;5113963;28;20688;-74
2023/12/01 02:28:55;;;;;;;43.17;26.27;;;0.70;99.90;;;-0.48;98.21;99802.44;5114052;28;20229;-74
2023/12/01 02:31:25;;;;;;;44.30;25.70;;;0.60;99.90;;;-0.54;98.28;99815.06;5113608;28;20296;-74
2023/12/01 02:33:54;;;;;;;46.03;27.27;;;0.80;99.90;;;-0.47;98.05;99806.72;5113928;28;20232;-74
2023/12/01 02:36:22;;;;;;;46.40;27.50;;;0.80;99.90;;;-0.49;98.52;99806.84;5113938;28;20574;-74
2023/12/01 02:38:49;;;;;;;43.47;25.23;;;0.60;99.90;;;-0.58;97.77;99808.34;5113530;28;20689;-74
2023/12/01 02:41:19;;;;;;;44.70;26.37;;;0.50;99.90;;;-0.51;98.60;99809.56;5113798;28;20298;-75
2023/12/01 02:43:47;;;;;;;44.57;26.10;;;0.60;99.90;;;-0.44;98.27;99814.38;5113775;28;20255;-74
2023/12/01 02:46:22;;;;;;;42.90;25.13;;;0.60;99.90;;;-0.44;97.62;99803.84;5113563;28;20722;-74
2023/12/01 02:48:50;;;;;;;43.17;25.67;;;0.60;99.90;;;-0.39;98.49;99809.63;5113892;28;20200;-74
2023/12/01 02:51:19;;;;;;;43.40;25.57;;;0.70;99.90;;;-0.44;97.04;99807.31;5113489;28;20218;-74
2023/12/01 02:53:47;;;;;;;39.30;23.70;;;0.70;99.90;;;-0.50;96.73;99807.78;5113645;28;20239;-74
2023/12/01 02:56:16;;;;;;;41.23;24.97;;;0.60;99.90;;;-0.57;97.46;99803.94;5113753;28;20200;-74
2023/12/01 02:58:46;;;;;;;43.73;25.43;;;0.50;99.90;;;-0.56;97.28;99805.63;5113683;28;20208;-74
2023/12/01 03:01:14;;;;;;;40.07;24.83;;;0.50;99.90;;;-0.55;97.59;99810.75;5113661;28;20298;-74
2023/12/01 03:03:42;;;;;;;46.63;26.40;;;0.70;99.90;;;-0.52;97.83;99809.72;5113298;28;20228;-74
2023/12/01 03:06:11;;;;;;;38.43;22.93;;;0.60;99.90;;;-0.62;96.71;99804.25;5113346;28;20735;-74
2023/12/01 03:08:39;;;;;;;40.80;23.87;;;0.50;99.90;;;-0.58;97.59;99808.34;5113709;28;20204;-74
2023/12/01 03:11:07;;;;;;;42.60;24.67;;;0.50;99.90;;;-0.52;97.31;99802.66;5113585;28;20552;-75
2023/12/01 03:13:36;;;;;;;40.57;24.30;;;0.60;99.90;;;-0.48;97.17;99805.06;5113151;28;20234;-74
2023/12/01 03:16:07;;;;;;;36.50;22.23;;;0.60;99.90;;;-0.47;96.94;99809.34;5113249;28;20753;-74
2023/12/01 03:18:35;;;;;;;35.30;21.30;;;0.70;99.90;;;-0.44;96.78;99803.84;5113633;28;20257;-74
2023/12/01 03:21:12;;;;;;;34.83;20.63;;;0.70;99.90;;;-0.54;95.57;99814.22;5113596;28;20573;-74
2023/12/01 03:23:42;;;;;;;34.60;20.73;;;0.50;99.90;;;-0.52;96.96;99813.19;5113452;28;20273;-74
2023/12/01 03:26:10;;;;;;;36.53;21.80;;;0.60;99.90;;;-0.58;96.66;99813.59;5113139;28;20684;-74
2023/12/01 03:28:38;;;;;;;35.70;21.30;;;0.50;99.90;;;-0.56;96.50;99821.41;5113349;28;20312;-74
2023/12/01 03:31:08;;;;;;;33.17;20.97;;;0.60;99.90;;;-0.56;96.18;99811.72;5113380;28;20220;-74
2023/12/01 03:33:36;;;;;;;36.40;22.27;;;0.60;99.90;;;-0.52;96.37;99825.47;5113599;28;20317;-74
2023/12/01 03:36:06;;;;;;;36.57;21.20;;;0.60;99.90;;;-0.54;96.37;99817.69;5113374;28;20299;-74
2023/12/01 03:38:34;;;;;;;35.33;22.53;;;0.50;99.90;;;-0.65;96.64;99825.50;5113324;28;20295;-74
2023/12/01 03:41:05;;;;;;;39.07;23.60;;;0.50;99.90;;;-0.66;96.65;99829.13;5115812;28;20290;-74
2023/12/01 03:43:34;;;;;;;40.07;23.80;;;0.40;99.90;;;-0.65;96.85;99833.41;5117364;28;20290;-74
2023/12/01 03:46:03;;;;;;;40.90;24.63;;;0.40;99.90;;;-0.65;97.61;99843.91;5117025;28;20290;-74
2023/12/01 03:48:34;;;;;;;40.50;24.13;;;0.40;99.90;;;-0.69;98.13;99842.50;5117011;28;20279;-74
2023/12/01 03:51:02;;;;;;;43.37;25.23;;;0.50;99.90;;;-0.66;97.81;99844.88;5116812;28;20215;-74
2023/12/01 03:53:30;;;;;;;38.63;22.67;;;0.40;99.90;;;-0.65;97.54;99837.84;5116771;28;20244;-74
2023/12/01 03:56:00;;;;;;;38.47;23.50;;;0.50;99.90;;;-0.88;96.71;99839.50;5116781;28;20208;-74
2023/12/01 03:58:30;;;;;;;38.70;23.70;;;0.30;99.90;;;-0.86;97.39;99845.50;5116836;28;20212;-74
2023/12/01 04:00:59;;;;;;;38.57;23.47;;;0.20;99.90;;;-0.79;97.45;99836.22;5116700;28;20208;-74
2023/12/01 04:03:27;;;;;;;37.83;22.47;;;0.30;99.90;;;-0.79;97.49;99835.38;5116230;28;20645;-74
2023/12/01 04:06:01;;;;;;;36.73;21.83;;;0.30;99.90;;;-0.76;97.39;99841.25;5116603;28;20295;-74
2023/12/01 04:08:29;;;;;;;38.93;23.47;;;0.30;99.90;;;-0.83;96.85;99845.25;5117512;28;20212;-74
2023/12/01 04:10:57;;;;;;;39.47;23.80;;;0.30;99.90;;;-0.82;96.96;99846.91;5116219;28;20712;-74
2023/12/01 04:13:25;;;;;;;38.83;24.00;;;0.30;99.90;;;-0.74;97.06;99839.34;5116022;28;20789;-74
2023/12/01 04:15:54;;;;;;;40.53;23.73;;;0.40;99.90;;;-0.71;96.06;99844.38;5117247;28;20344;-74
2023/12/01 04:18:22;;;;;;;40.67;23.67;;;0.40;99.90;;;-0.79;95.99;99846.72;5116031;28;20611;-74
2023/12/01 04:20:50;;;;;;;40.53;24.23;;;0.30;99.90;;;-0.72;95.93;99840.06;5116308;28;20228;-74
2023/12/01 04:23:19;;;;;;;41.07;24.70;;;0.40;99.90;;;-0.70;96.47;99846.06;5116238;28;20223;-74
2023/12/01 04:25:48;;;;;;;42.90;24.57;;;0.40;99.90;;;-0.67;95.15;99840.56;5116215;28;20315;-74
2023/12/01 04:28:16;;;;;;;41.90;24.00;;;0.40;99.90;;;-0.70;95.25;99846.06;5115844;28;20210;-74
2023/12/01 04:30:45;;;;;;;43.93;24.67;;;0.40;99.90;;;-0.72;96.22;99847.13;5116225;28;20204;-74
2023/12/01 04:33:13;;;;;;;42.40;24.47;;;0.30;99.90;;;-0.71;96.52;99848.78;5115646;28;20228;-74
2023/12/01 04:35:41;;;;;;;43.33;24.83;;;0.50;99.90;;;-0.84;95.75;99848.84;5116057;28;20200;-74
2023/12/01 04:38:10;;;;;;;42.30;24.17;;;0.30;99.90;;;-0.79;95.43;99846.72;5116002;28;20294;-74
2023/12/01 04:40:39;;;;;;;42.83;23.40;;;0.30;99.90;;;-0.84;96.58;99848.84;5115994;28;20235;-74
2023/12/01 04:43:07;;;;;;;41.13;23.90;;;0.30;99.90;;;-0.83;96.79;99852.31;5115894;28;20267;-74
2023/12/01 04:45:36;;;;;;;41.20;23.47;;;0.30;99.90;;;-0.78;96.42;99855.44;5115888;28;20243;-74
2023/12/01 04:48:07;;;;;;;40.53;21.87;;;0.30;99.90;;;-0.92;94.47;99853.78;5115833;28;20199;-74
2023/12/01 04:50:45;;;;;;;39.10;22.53;;;0.20;99.90;;;-0.85;94.94;99851.56;5115790;28;20207;-74
2023/12/01 04:53:14;;;;;;;41.37;23.27;;;0.20;99.90;;;-0.91;95.74;99859.88;5114778;28;20292;-74
2023/12/01 04:55:43;;;;;;;35.07;20.53;;;0.20;99.90;;;-0.88;94.69;99863.13;5115612;28;20241;-74
2023/12/01 04:58:11;;;;;;;39.30;23.50;;;0.50;99.90;;;-0.84;95.60;99869.84;5115518;28;20231;-74
2023/12/01 05:00:40;;;;;;;39.80;22.70;;;0.20;99.90;;;-0.80;94.77;99876.56;5115606;28;20291;-74
2023/12/01 05:03:10;;;;;;;39.23;22.57;;;0.30;99.90;;;-0.83;93.22;99884.69;5115368;28;20234;-73
2023/12/01 05:05:41;;;;;;;40.97;22.07;;;0.30;99.90;;;-0.84;94.00;99884.78;5115237;28;20639;-74
2023/12/01 05:08:10;;;;;;;38.30;23.57;;;0.30;99.90;;;-0.76;93.74;99885.94;5115763;28;20204;-74
2023/12/01 05:10:44;;;;;;;37.73;22.97;;;0.40;99.90;;;-0.79;92.96;99880.03;5115392;28;20291;-74
2023/12/01 05:13:14;;;;;;;36.93;22.27;;;0.30;99.90;;;-0.82;93.14;99886.34;5115285;28;20574;-74
2023/12/01 05:15:42;;;;;;;38.87;23.17;;;0.20;99.90;;;-0.96;93.25;99886.50;5115291;28;20205;-74
2023/12/01 05:18:11;;;;;;;42.60;23.47;;;0.10;99.90;;;-0.91;95.24;99887.00;5115240;28;20235;-74
2023/12/01 05:20:40;;;;;;;39.23;23.60;;;0.20;99.90;;;-0.89;93.71;99879.84;5114813;28;20663;-74
2023/12/01 05:23:10;;;;;;;38.73;22.73;;;0.20;99.90;;;-0.83;94.44;99876.81;5115160;28;20235;-74
2023/12/01 05:25:41;;;;;;;35.47;21.97;;;0.30;99.90;;;-0.85;94.42;99878.69;5115108;28;20277;-74
2023/12/01 05:28:12;;;;;;;40.20;22.67;;;0.30;99.90;;;-0.81;93.74;99885.41;5114800;28;20637;-74
2023/12/01 05:30:46;;;;;;;39.97;24.23;;;0.30;99.90;;;-0.89;94.63;99890.34;5114587;28;20204;-74
2023/12/01 05:33:15;;;;;;;40.73;22.70;;;0.30;99.90;;;-0.93;94.93;99885.44;5114628;28;20728;-74
2023/12/01 05:35:43;;;;;;;43.10;22.83;;;0.20;99.90;;;-0.91;94.31;99891.41;5114817;28;20242;-74
2023/12/01 05:38:12;;;;;;;38.83;22.07;;;0.10;99.90;;;-0.88;95.38;99893.81;5114809;28;20203;-74
2023/12/01 05:40:40;;;;;;;38.73;23.23;;;0.20;99.90;;;-0.96;94.01;99897.00;5114771;28;20295;-74
2023/12/01 05:43:09;;;;;;;38.17;21.87;;;0.20;99.90;;;-0.88;94.95;99894.66;5115814;28;20266;-74
2023/12/01 05:45:37;;;;;;;36.27;21.57;;;0.40;99.90;;;-0.80;94.08;99902.00;5114768;28;20199;-73
2023/12/01 05:48:07;;;;;;;37.33;21.70;;;0.30;99.90;;;-0.73;93.74;99893.59;5114671;28;20253;-74
2023/12/01 05:50:41;;;;;;;38.03;22.60;;;0.40;99.90;;;-0.73;93.72;99904.09;5114291;28;20564;-74
2023/12/01 05:53:11;;;;;;;38.80;22.23;;;0.40;99.90;;;-0.74;94.24;99901.56;5114641;28;20227;-74
2023/12/01 05:55:39;;;;;;;35.90;22.10;;;0.40;99.90;;;-0.73;93.60;99896.22;5114135;28;20594;-74
2023/12/01 05:58:10;;;;;;;40.10;22.40;;;0.40;99.90;;;-0.76;94.04;99895.59;5114512;28;20234;-74
2023/12/01 06:00:41;;;;;;;39.47;23.60;;;0.50;99.90;;;-0.81;94.16;99888.03;5114530;28;20219;-74
2023/12/01 06:03:12;;;;;;;40.27;22.57;;;0.30;99.90;;;-0.80;94.13;99902.84;5113823;28;20760;-74
2023/12/01 06:05:41;;;;;;;41.33;21.77;;;0.40;99.90;;;-0.92;94.16;99895.81;5114152;28;20680;-74
2023/12/01 06:08:09;;;;;;;40.07;22.17;;;0.20;99.90;;;-0.97;94.77;99897.09;5114422;28;20200;-74
2023/12/01 06:10:39;;;;;;;39.07;21.67;;;0.10;99.90;;;-0.99;93.84;99901.66;5114252;28;20211;-74
2023/12/01 06:13:07;;;;;;;41.43;23.37;;;0.10;99.90;;;-1.04;94.32;99905.44;5114252;28;20277;-74
2023/12/01 06:15:36;;;;;;;37.40;20.87;;;0.10;99.90;;;-1.00;94.38;99906.06;5114152;28;20230;-74
2023/12/01 06:18:04;;;;;;;36.80;21.53;;;0.10;99.90;;;-0.98;94.67;99893.63;5114241;28;20303;-74
2023/12/01 06:20:34;;;;;;;38.17;21.93;;;0.10;99.90;;;-0.99;93.50;99906.91;5114157;28;20207;-74
2023/12/01 06:23:06;;;;;;;38.50;21.53;;;0.20;99.90;;;-0.95;94.04;99903.94;5114096;28;20235;-74
2023/12/01 06:25:41;;;;;;;38.77;20.77;;;0.10;99.90;;;-0.94;94.77;99915.28;5114139;28;20192;-74
2023/12/01 06:28:09;;;;;;;35.80;20.33;;;0.20;99.90;;;-0.99;93.63;99920.03;5114025;28;20195;-74
2023/12/01 06:30:39;;;;;;;35.33;19.73;;;0.00;99.90;;;-0.97;93.77;99926.84;5114001;28;20212;-73
2023/12/01 06:33:08;;;;;;;37.27;21.47;;;0.10;99.90;;;-0.96;94.56;99923.28;5113937;28;20224;-73
2023/12/01 06:35:38;;;;;;;39.63;21.40;;;0.10;99.90;;;-1.00;93.22;99927.06;5113559;28;20732;-73
2023/12/01 06:38:07;;;;;;;39.67;21.10;;;0.10;99.90;;;-0.99;93.81;99933.97;5113605;28;20673;-73
2023/12/01 06:40:35;;;;;;;38.03;20.70;;;0.10;99.90;;;-1.05;93.74;99934.41;5113682;28;20668;-73
2023/12/01 06:43:09;;;;;;;37.77;20.07;;;0.00;99.90;;;-1.04;93.56;99944.84;5113532;28;20732;-73
2023/12/01 06:45:39;;;;;;;33.23;18.77;;;0.10;99.90;;;-1.14;94.05;99940.31;5114732;28;20184;-74
2023/12/01 06:48:08;;;;;;;33.43;18.33;;;0.10;99.90;;;-1.12;93.80;99946.28;5114076;28;20212;-74
2023/12/01 06:50:37;;;;;;;35.67;19.03;;;0.00;99.90;;;-1.14;94.13;99945.56;5113869;28;20200;-74
2023/12/01 06:53:06;;;;;;;36.60;18.90;;;0.00;99.90;;;-1.13;93.42;99937.56;5113343;28;20745;-74
2023/12/01 06:55:37;;;;;;;33.63;18.77;;;-0.10;99.90;;;-1.08;94.69;99939.88;5113607;28;20273;-73
2023/12/01 06:58:05;;;;;;;30.60;18.00;;;0.00;99.90;;;-1.06;92.50;99946.72;5113692;28;20208;-74
2023/12/01 07:00:36;;;;;;;31.17;18.00;;;0.10;99.90;;;-1.02;93.08;99956.06;5113708;28;20298;-74
2023/12/01 07:03:07;;;;;;;36.43;18.50;;;0.20;99.90;;;-1.03;92.12;99953.56;5113625;28;20224;-73
2023/12/01 07:05:40;;;;;;;34.00;18.80;;;0.10;99.90;;;-1.21;93.80;99962.69;5113667;28;20223;-73
2023/12/01 07:08:12;;;;;;;36.47;19.90;;;0.10;99.90;;;-1.24;94.70;99973.41;5113692;28;20188;-73
2023/12/01 07:10:42;;;;;;;34.27;18.73;;;-0.20;99.90;;;-1.21;94.53;99978.44;5113595;28;20216;-74
2023/12/01 07:13:11;;;;;;;30.33;17.53;;;-0.10;99.90;;;-1.18;94.62;99975.63;5113444;28;20246;-73
2023/12/01 07:15:39;;;;;;;27.60;16.43;;;-0.10;99.90;;;-1.24;93.89;99984.75;5115518;28;20219;-73
2023/12/01 07:18:09;;;;;;;23.93;15.27;;;-0.20;99.90;;;-1.20;94.08;99986.22;5117569;28;20287;-73
2023/12/01 07:20:38;;;;;;;24.63;14.73;;;-0.10;99.90;;;-1.16;93.14;99984.22;5117618;28;20291;-73
2023/12/01 07:23:07;;;;;;;24.50;14.40;;;-0.10;99.90;;;-1.42;92.19;99988.63;5117108;28;20729;-73
2023/12/01 07:25:36;;;;;;;21.97;14.27;;;-0.30;99.90;;;-1.38;93.40;99994.50;5117514;28;20211;-73
2023/12/01 07:28:08;;;;;;;22.57;14.50;;;-0.30;99.90;;;-1.26;93.34;99996.28;5117459;28;20215;-73
2023/12/01 07:30:39;;;;;;;26.30;15.40;;;-0.20;99.90;;;-1.26;92.17;100001.53;5117329;28;20188;-73
2023/12/01 07:33:07;;;;;;;23.97;14.83;;;-0.20;99.90;;;-1.34;91.75;100006.50;5116965;28;20315;-73
2023/12/01 07:35:36;;;;;;;23.07;14.17;;;-0.20;99.90;;;-1.30;92.09;100010.59;5117205;28;20227;-73
2023/12/01 07:38:05;;;;;;;23.60;14.27;;;0.00;99.90;;;-1.29;92.71;100007.00;5116912;28;20700;-74
2023/12/01 07:40:34;;;;;;;23.67;14.17;;;-0.20;99.90;;;-1.25;92.19;100011.97;5116916;28;20701;-73
2023/12/01 07:43:02;;;;;;;25.30;15.17;;;0.00;99.90;;;-1.25;92.61;100011.97;5117064;28;20227;-73
2023/12/01 07:45:31;;;;;;;23.40;13.77;;;-0.10;99.90;;;-1.26;91.89;100014.66;5116800;28;20670;-74
2023/12/01 07:47:59;;;;;;;23.10;14.67;;;-0.20;99.90;;;-1.29;92.88;100025.38;5116706;28;20614;-73
2023/12/01 07:50:27;;;;;;;22.27;14.17;;;-0.20;99.90;;;-1.42;91.38;100030.63;5117030;28;20206;-73
2023/12/01 07:52:56;;;;;;;22.07;14.80;;;-0.30;99.90;;;-1.33;92.41;100030.00;5116546;28;20309;-73
2023/12/01 07:55:27;;;;;;;21.27;14.23;;;-0.30;99.90;;;-1.30;91.56;100040.28;5116786;28;20232;-73
2023/12/01 07:57:55;;;;;;;20.87;14.10;;;-0.30;99.90;;;-1.31;91.53;100032.53;5116561;28;20214;-74
2023/12/01 08:00:24;;;;;;;24.17;14.20;;;-0.20;99.90;;;-1.38;91.80;100041.75;5116824;28;20204;-74
2023/12/01 08:02:53;;;;;;;22.03;14.87;;;-0.30;99.90;;;-1.45;92.72;100048.38;5116588;28;20601;-73
2023/12/01 08:05:23;;;;;;;23.90;14.80;;;0.90;99.90;;;-1.35;92.96;100050.28;5116662;28;20271;-73
2023/12/01 08:07:54;;;;;;;21.53;14.40;;;-0.20;99.90;;;-1.32;91.76;100057.94;5116629;28;20290;-74
2023/12/01 08:10:28;;;;;;;22.53;14.17;;;-0.20;99.90;;;-1.40;91.87;100059.38;5116635;28;20245;-74
2023/12/01 08:13:00;;;;;;;21.97;14.70;;;-0.20;99.90;;;-1.37;92.40;100059.22;5116457;28;20228;-74
2023/12/01 08:15:30;;;;;;;23.63;13.93;;;-0.30;99.90;;;-1.36;92.40;100055.63;5116431;28;20227;-74
2023/12/01 08:17:59;;;;;;;24.13;14.67;;;-0.20;99.90;;;-1.30;92.46;100071.81;5116125;28;20662;-74
2023/12/01 08:20:29;;;;;;;20.87;13.97;;;-0.20;99.90;;;-1.27;91.29;100070.78;5116394;28;20286;-74
2023/12/01 08:22:59;;;;;;;19.27;13.03;;;-0.20;99.90;;;-1.28;92.30;100074.34;5116601;28;20224;-73
2023/12/01 08:25:29;;;;;;;18.93;12.93;;;-0.20;99.90;;;-1.38;90.75;100073.28;5116233;28;20210;-73
2023/12/01 08:27:58;;;;;;;18.53;12.90;;;-0.30;99.90;;;-1.43;90.67;100075.34;5116265;28;20580;-74
2023/12/01 08:30:27;;;;;;;19.23;12.70;;;-0.30;99.90;;;-1.49;92.14;100078.38;5116229;28;20204;-74
2023/12/01 08:32:56;;;;;;;18.33;12.70;;;-0.40;99.90;;;-1.45;92.68;100069.38;5115771;28;20259;-74
2023/12/01 08:35:24;;;;;;;17.73;12.37;;;-0.40;99.90;;;-1.37;91.78;100080.22;5115958;28;20227;-74
2023/12/01 08:37:54;;;;;;;17.47;11.93;;;-0.30;99.90;;;-1.45;91.06;100075.47;5115960;28;20299;-74
2023/12/01 08:40:22;;;;;;;18.90;12.87;;;-0.30;99.90;;;-1.38;91.95;100081.16;5116036;28;20204;-74
2023/12/01 08:42:55;;;;;;;18.37;12.60;;;-0.30;99.90;;;-1.37;92.10;100082.84;5115929;28;20224;-74
2023/12/01 08:45:23;;;;;;;16.20;11.93;;;-0.10;99.90;;;-1.33;90.25;100084.28;5115896;28;20244;-74
2023/12/01 08:47:52;;;;;;;18.90;13.03;;;-0.20;99.90;;;-1.30;90.54;100094.63;5115566;28;20212;-74
2023/12/01 08:50:22;;;;;;;18.17;11.77;;;-0.20;99.90;;;-1.37;89.87;100085.47;5115777;28;20256;-74
2023/12/01 08:52:50;;;;;;;18.10;12.07;;;-0.30;99.90;;;-1.33;90.01;100093.03;5115242;28;20242;-74
2023/12/01 08:55:18;;;;;;;16.40;11.73;;;-0.30;99.90;;;-1.36;89.46;100093.22;5115377;28;20673;-74
2023/12/01 08:57:47;;;;;;;18.87;12.43;;;-0.30;99.90;;;-1.47;89.72;100097.50;5115627;28;20242;-74
2023/12/01 09:00:20;;;;;;;17.53;12.33;;;-0.30;99.90;;;-1.37;89.13;100088.09;5115568;28;20204;-74
2023/12/01 09:02:50;;;;;;;18.17;12.53;;;-0.30;99.90;;;-1.36;89.21;100095.00;5115289;28;20713;-74
2023/12/01 09:05:19;;;;;;;18.80;12.17;;;-0.30;99.90;;;-1.29;89.90;100093.66;5115595;28;20204;-74
2023/12/01 09:07:48;;;;;;;17.47;11.10;;;-0.10;99.90;;;-1.30;89.56;100092.81;5115541;28;20230;-74
2023/12/01 09:10:19;;;;;;;17.30;10.70;;;-0.20;99.90;;;-1.51;89.00;100099.50;5115404;28;20204;-74
2023/12/01 09:12:47;;;;;;;15.77;10.87;;;-0.30;99.90;;;-1.41;89.90;100094.47;5115311;28;20697;-74
2023/12/01 09:15:18;;;;;;;14.33;10.70;;;-0.30;99.90;;;-1.34;89.59;100095.75;5116000;28;20200;-75
2023/12/01 09:17:46;;;;;;;16.13;10.90;;;-0.20;99.90;;;-1.30;88.52;100092.00;5116120;28;20246;-74
2023/12/01 09:20:15;;;;;;;14.43;10.10;;;-0.20;99.90;;;-1.26;88.65;100096.06;5115286;28;20232;-74
2023/12/01 09:22:43;;;;;;;13.73;10.03;;;-0.20;99.90;;;-1.17;89.01;100090.25;5115124;28;20316;-74
2023/12/01 09:25:11;;;;;;;14.13;9.97;;;0.10;99.90;;;-1.18;88.37;100091.16;5115124;28;20204;-74
2023/12/01 09:27:41;;;;;;;14.97;10.70;;;-0.10;99.90;;;-1.23;88.27;100090.63;5115073;28;20200;-73
2023/12/01 09:30:15;;;;;;;12.03;8.93;;;-0.10;99.90;;;-1.18;87.28;100097.28;5115083;28;20287;-73
2023/12/01 09:32:45;;;;;;;13.10;9.20;;;-0.10;99.90;;;-1.15;87.74;100091.81;5114992;28;20271;-74
2023/12/01 09:35:15;;;;;;;13.23;8.60;;;0.00;99.90;;;-1.15;87.31;100099.69;5114934;28;20320;-74
2023/12/01 09:38:03;;;;;;;12.53;8.70;;;0.30;99.90;;;-1.22;86.65;100111.53;5115026;28;20200;-73
2023/12/01 09:40:37;;;;;;;10.43;8.43;;;-0.10;99.90;;;-1.25;86.76;100110.91;5114746;28;20238;-74
2023/12/01 09:43:07;;;;;;;12.23;8.83;;;-0.10;99.90;;;-1.22;87.06;100105.44;5114756;28;20264;-74
2023/12/01 09:45:36;;;;;;;11.23;8.93;;;0.70;99.90;;;-1.26;85.39;100111.84;5114675;28;20207;-74
2023/12/01 09:48:09;;;;;;;18.20;12.57;;;-0.20;99.90;;;-1.19;86.34;100113.97;5114748;28;20273;-74
2023/12/01 09:50:40;;;;;;;13.80;9.93;;;0.00;99.90;;;-1.13;86.34;100112.75;5114625;28;20212;-74
2023/12/01 09:53:08;;;;;;;13.93;8.90;;;0.00;99.90;;;-1.08;86.09;100102.75;5114553;28;20295;-74
2023/12/01 09:55:36;;;;;;;12.70;9.57;;;0.00;99.90;;;-1.03;85.80;100108.56;5114496;28;20237;-74
2023/12/01 09:58:05;;;;;;;10.80;8.40;;;0.10;99.90;;;-1.01;86.23;100106.66;5114148;28;20597;-74
2023/12/01 10:00:33;;;;;;;13.80;8.93;;;0.10;99.90;;;-0.99;85.56;100107.38;5114092;28;20674;-75
2023/12/01 10:03:01;;;;;;;10.80;8.23;;;0.30;99.90;;;-0.99;84.63;100109.19;5114312;28;20330;-75
2023/12/01 10:05:33;;;;;;;12.17;8.87;;;0.20;99.90;;;-1.01;85.17;100114.53;5114209;28;20200;-74
2023/12/01 10:08:04;;;;;;;17.23;10.10;;;0.10;99.90;;;-1.03;85.05;100108.56;5113869;28;20276;-75
2023/12/01 10:10:33;;;;;;;16.33;9.77;;;0.20;99.90;;;-1.08;85.38;100108.00;5114165;28;20189;-74
2023/12/01 10:13:04;;;;;;;12.80;9.83;;;0.00;99.90;;;-1.14;85.78;100103.16;5114221;28;20301;-74
2023/12/01 10:15:37;;;;;;;13.97;10.23;;;0.00;99.90;;;-1.07;85.56;100113.16;5113786;28;20188;-75
2023/12/01 10:18:11;;;;;;;14.53;10.40;;;0.00;99.90;;;-1.12;86.02;100109.16;5114242;28;20219;-74
2023/12/01 10:21:07;;;;;;;13.80;9.87;;;0.00;99.90;;;-1.06;85.12;100106.09;5114110;28;20257;-74